Terminal Aerodrome Forecast
Issued by NWS

Home | Current Version | Previous Version | Text Only | Print | Product List | Glossary On
Versions: 1 2 3 4 5 6 7 8 9 10 11 12 13 14 15 16 17 18 19 20 21
000
FTUS43 KDVN 251700 AAA
TAFCID
TAF AMD
KCID 251708Z 2517/2612 09012KT 1SM -SN BR OVC010
      TEMPO 2517/2520 1/2SM SN BKN006
     FM252100 07011KT 1/2SM SN FZFG OVC004
     FM260100 02013KT 3SM -SN OVC005
     FM260900 36012KT 6SM BR BKN008=

USA.gov is the U.S. government's official web portal to all federal, state and local government web resources and services.